Reocin, Spain
Current Conditions -  °F | °C
As of 1:00 PM on Friday 19 Dec 2014 (Local Time) from LEXJ Reporting Station
Broken Clouds Broken Clouds  
Wind Chill: 54°   Ceiling: 4000
Heat Index: 54°   Visibility: 6mi
Dew Point: 43°   Wind: 9mph
Humidity: 67%   Direction: 220°SW
Pressure: 30.5"   Gusts: NA
Location:  43.34°N, 4.09°W
Report Text: LEXJ 191200Z 22008KT 160V250 9999 BKN040 12/06 Q1033
Loading
Personal Weather Stations






























Interactive Weather Map New forecast layout! Learn more

10-Day Weather Forecast

Advertisements
Track Severe Weather on mobile